createdAt,value
2019-04-04T00:01:22.530Z,99718.89
2019-04-04T00:03:51.862Z,99714.15
2019-04-04T00:06:20.561Z,99718.73
2019-04-04T00:08:49.053Z,99709.55
2019-04-04T00:11:17.249Z,99713.30
2019-04-04T00:13:45.450Z,99707.68
2019-04-04T00:16:16.063Z,99708.01
2019-04-04T00:18:43.991Z,99696.09
2019-04-04T00:21:13.227Z,99696.95
2019-04-04T00:23:41.454Z,99696.09
2019-04-04T00:26:10.785Z,99689.59
2019-04-04T00:28:39.531Z,99689.59
2019-04-04T00:31:07.941Z,99689.28
2019-04-04T00:33:36.404Z,99687.92
2019-04-04T00:36:04.912Z,99679.73
2019-04-04T00:38:33.114Z,99685.51
2019-04-04T00:41:01.349Z,99682.45
2019-04-04T00:43:29.821Z,99685.00
2019-04-04T00:46:00.539Z,99697.46
2019-04-04T00:48:28.336Z,99714.50
2019-04-04T00:50:56.797Z,99866.53
2019-04-04T00:53:25.306Z,99753.36
2019-04-04T00:55:53.761Z,99757.09
2019-04-04T00:58:22.279Z,99860.77
2019-04-04T01:00:50.579Z,99770.73
2019-04-04T01:03:18.801Z,99826.02
2019-04-04T01:05:47.177Z,99778.93
2019-04-04T01:08:15.667Z,99803.82
2019-04-04T01:10:44.138Z,99765.06
2019-04-04T01:13:12.365Z,99803.11
2019-04-04T01:15:40.668Z,99758.58
2019-04-04T01:18:08.869Z,99790.49
2019-04-04T01:20:37.237Z,99759.61
2019-04-04T01:23:05.550Z,99791.36
2019-04-04T01:25:34.012Z,99760.99
2019-04-04T01:28:02.492Z,99788.97
2019-04-04T01:30:30.986Z,99785.90
2019-04-04T01:32:59.466Z,99778.91
2019-04-04T01:35:27.956Z,99787.09
2019-04-04T01:37:58.119Z,99769.88
2019-04-04T01:40:26.436Z,99786.77
2019-04-04T01:42:54.922Z,99764.92
2019-04-04T01:45:23.394Z,99765.61
2019-04-04T01:47:51.611Z,99766.98
2019-04-04T01:50:22.494Z,99755.04
2019-04-04T01:52:49.879Z,99749.59
2019-04-04T01:55:18.336Z,99762.23
2019-04-04T01:57:46.823Z,99776.90
2019-04-04T02:00:15.835Z,99784.55
2019-04-04T02:02:44.292Z,99778.08
2019-04-04T02:05:13.111Z,99773.45
2019-04-04T02:07:41.256Z,99761.84
2019-04-04T02:10:10.235Z,99756.72
2019-04-04T02:12:39.334Z,99756.72
2019-04-04T02:15:13.787Z,99757.75
2019-04-04T02:17:40.540Z,99752.62
2019-04-04T02:20:08.865Z,99762.20
2019-04-04T02:22:37.066Z,99761.84
2019-04-04T02:25:08.027Z,99735.91
2019-04-04T02:27:37.914Z,99707.61
2019-04-04T02:30:07.166Z,99691.22
2019-04-04T02:32:35.370Z,99691.56
2019-04-04T02:35:05.057Z,99684.40
2019-04-04T02:37:33.280Z,99686.80
2019-04-04T02:40:01.762Z,99711.54
2019-04-04T02:42:29.963Z,99717.84
2019-04-04T02:44:58.208Z,99719.55
2019-04-04T02:47:26.796Z,99723.97
2019-04-04T02:49:55.160Z,99733.52
2019-04-04T02:52:23.649Z,99732.53
2019-04-04T02:54:57.087Z,99721.08
2019-04-04T02:57:22.668Z,99727.05
2019-04-04T02:59:53.404Z,99712.55
2019-04-04T03:02:23.174Z,99711.03
2019-04-04T03:04:51.190Z,99707.63
2019-04-04T03:07:19.662Z,99709.67
2019-04-04T03:09:48.164Z,99698.09
2019-04-04T03:12:16.620Z,99691.27
2019-04-04T03:14:45.105Z,99691.95
2019-04-04T03:17:13.602Z,99682.41
2019-04-04T03:19:43.626Z,99691.95
2019-04-04T03:22:11.705Z,99678.64
2019-04-04T03:24:42.904Z,99665.69
2019-04-04T03:27:10.084Z,99671.84
2019-04-04T03:29:38.549Z,99666.20
2019-04-04T03:32:13.786Z,99668.08
2019-04-04T03:34:38.625Z,99653.58
2019-04-04T03:37:10.170Z,99653.24
2019-04-04T03:39:37.085Z,99667.42
2019-04-04T03:42:08.223Z,99661.97
2019-04-04T03:44:35.582Z,99660.64
2019-04-04T03:47:03.772Z,99667.79
2019-04-04T03:49:32.065Z,99675.79
2019-04-04T03:52:00.272Z,99673.94
2019-04-04T03:54:28.634Z,99665.75
2019-04-04T03:56:56.828Z,99671.56
2019-04-04T03:59:25.048Z,99687.89
2019-04-04T04:01:53.419Z,99690.44
2019-04-04T04:04:21.775Z,99681.41
2019-04-04T04:06:50.388Z,99675.79
2019-04-04T04:09:18.582Z,99692.66
2019-04-04T04:11:46.806Z,99692.84
2019-04-04T04:14:15.012Z,99681.23
2019-04-04T04:16:43.227Z,99684.96
2019-04-04T04:19:11.453Z,99694.47
2019-04-04T04:21:42.760Z,99715.41
2019-04-04T04:24:09.649Z,99708.80
2019-04-04T04:26:40.989Z,99715.95
2019-04-04T04:29:08.255Z,99723.96
2019-04-04T04:31:36.487Z,99724.64
2019-04-04T04:34:04.718Z,99724.27
2019-04-04T04:36:33.199Z,99736.86
2019-04-04T04:39:01.669Z,99745.72
2019-04-04T04:41:30.170Z,99749.47
2019-04-04T04:43:58.627Z,99745.25
2019-04-04T04:46:27.120Z,99748.48
2019-04-04T04:48:55.616Z,99748.48
2019-04-04T04:51:24.090Z,99749.33
2019-04-04T04:53:52.560Z,99747.29
2019-04-04T04:56:20.780Z,99742.86
2019-04-04T04:58:49.005Z,99748.48
2019-04-04T05:01:18.383Z,99746.91
2019-04-04T05:03:47.293Z,99738.09
2019-04-04T05:06:15.496Z,99717.45
2019-04-04T05:08:43.707Z,99715.41
2019-04-04T05:11:14.457Z,99716.77
2019-04-04T05:13:41.840Z,99704.48
2019-04-04T05:16:10.061Z,99704.48
2019-04-04T05:18:38.253Z,99724.91
2019-04-04T05:21:06.482Z,99733.08
2019-04-04T05:23:34.663Z,99728.95
2019-04-04T05:26:03.295Z,99741.20
2019-04-04T05:28:31.550Z,99751.59
2019-04-04T05:30:59.766Z,99757.94
2019-04-04T05:33:29.136Z,99774.32
2019-04-04T05:35:57.901Z,99787.82
2019-04-04T05:38:26.093Z,99785.13
2019-04-04T05:40:55.346Z,99786.87
2019-04-04T05:43:24.287Z,99772.41
2019-04-04T05:45:52.487Z,99754.00
2019-04-04T05:48:20.699Z,99738.70
2019-04-04T05:50:48.911Z,99726.94
2019-04-04T05:53:17.116Z,99732.91
2019-04-04T05:55:45.315Z,99748.92
2019-04-04T05:58:13.538Z,99775.16
2019-04-04T06:00:44.096Z,99779.95
2019-04-04T06:03:13.025Z,99768.52
2019-04-04T06:05:42.239Z,99755.23
2019-04-04T06:08:10.454Z,99776.88
2019-04-04T06:10:38.711Z,99799.38
2019-04-04T06:13:06.849Z,99801.59
2019-04-04T06:15:35.065Z,99795.63
2019-04-04T06:18:03.334Z,99800.59
2019-04-04T06:20:31.546Z,99790.52
2019-04-04T06:22:59.754Z,99791.03
2019-04-04T06:25:27.980Z,99800.75
2019-04-04T06:27:56.549Z,99810.66
2019-04-04T06:30:24.765Z,99813.71
2019-04-04T06:32:52.977Z,99803.67
2019-04-04T06:35:21.184Z,99799.06
2019-04-04T06:37:51.305Z,99799.41
2019-04-04T06:40:19.575Z,99794.28
2019-04-04T06:42:47.789Z,99802.97
2019-04-04T06:45:16.328Z,99809.64
2019-04-04T06:47:44.550Z,99811.68
2019-04-04T06:50:12.758Z,99805.88
2019-04-04T06:52:40.952Z,99794.30
2019-04-04T06:55:09.173Z,99794.44
2019-04-04T06:57:37.613Z,99794.80
2019-04-04T07:00:08.931Z,99801.61
2019-04-04T07:02:37.129Z,99808.94
2019-04-04T07:05:10.393Z,99814.92
2019-04-04T07:07:37.864Z,99799.75
2019-04-04T07:10:06.075Z,99802.11
2019-04-04T07:12:37.850Z,99802.80
2019-04-04T07:15:06.140Z,99798.36
2019-04-04T07:17:34.346Z,99796.66
2019-04-04T07:20:02.547Z,99798.70
2019-04-04T07:22:30.736Z,99806.38
2019-04-04T07:25:01.124Z,99799.23
2019-04-04T07:27:28.872Z,99799.73
2019-04-04T07:29:57.326Z,99797.01
2019-04-04T07:32:25.478Z,99791.38
2019-04-04T07:34:53.699Z,99792.56
2019-04-04T07:37:22.664Z,99791.22
2019-04-04T07:39:50.868Z,99792.58
2019-04-04T07:42:19.154Z,99799.73
2019-04-04T07:44:47.601Z,99809.63
2019-04-04T07:47:16.767Z,99808.27
2019-04-04T07:49:45.038Z,99799.71
2019-04-04T07:52:13.256Z,99794.39
2019-04-04T07:54:41.456Z,99798.50
2019-04-04T07:57:09.678Z,99798.68
2019-04-04T07:59:37.879Z,99797.30
2019-04-04T08:02:06.092Z,99793.88
2019-04-04T08:04:34.360Z,99804.42
2019-04-04T08:07:02.573Z,99804.36
2019-04-04T08:09:30.774Z,99815.60
2019-04-04T08:11:59.312Z,99827.20
2019-04-04T08:14:28.079Z,99833.19
2019-04-04T08:16:56.529Z,99829.61
2019-04-04T08:19:24.726Z,99834.84
2019-04-04T08:21:52.920Z,99831.17
2019-04-04T08:24:21.133Z,99822.42
2019-04-04T08:26:49.332Z,99821.50
2019-04-04T08:29:17.556Z,99820.72
2019-04-04T08:31:45.758Z,99826.27
2019-04-04T08:34:13.986Z,99818.97
2019-04-04T08:36:42.199Z,99814.78
2019-04-04T08:39:11.971Z,99816.63
2019-04-04T08:41:40.187Z,99809.41
2019-04-04T08:44:08.398Z,99812.95
2019-04-04T08:46:36.611Z,99822.89
2019-04-04T08:49:04.811Z,99816.39
2019-04-04T08:51:33.028Z,99820.59
2019-04-04T08:54:01.225Z,99815.72
2019-04-04T08:56:29.445Z,99811.76
2019-04-04T08:58:57.654Z,99807.57
2019-04-04T09:01:25.849Z,99803.47
2019-04-04T09:03:54.529Z,99796.19
2019-04-04T09:06:22.746Z,99796.08
2019-04-04T09:08:50.954Z,99794.81
2019-04-04T09:11:19.150Z,99790.05
2019-04-04T09:13:47.352Z,99794.81
2019-04-04T09:16:15.551Z,99799.72
2019-04-04T09:18:43.775Z,99803.20
2019-04-04T09:21:11.978Z,99801.55
2019-04-04T09:23:40.189Z,99804.58
2019-04-04T09:26:08.400Z,99808.30
2019-04-04T09:28:36.616Z,99810.37
2019-04-04T09:31:05.389Z,99812.02
2019-04-04T09:33:33.603Z,99808.87
2019-04-04T09:36:01.805Z,99803.41
2019-04-04T09:38:30.025Z,99811.30
2019-04-04T09:40:58.225Z,99816.32
2019-04-04T09:43:26.898Z,99825.39
2019-04-04T09:45:55.356Z,99832.19
2019-04-04T09:48:23.558Z,99836.42
2019-04-04T09:50:51.769Z,99841.50
2019-04-04T09:53:19.992Z,99829.34
2019-04-04T09:55:48.197Z,99826.10
2019-04-04T09:58:16.414Z,99830.07
2019-04-04T10:00:45.494Z,99833.02
2019-04-04T10:03:13.717Z,99839.75
2019-04-04T10:05:41.919Z,99847.59
2019-04-04T10:08:10.137Z,99861.30
2019-04-04T10:10:38.348Z,99866.64
2019-04-04T10:13:06.555Z,99861.16
2019-04-04T10:15:34.792Z,99862.19
2019-04-04T10:18:02.969Z,99865.53
2019-04-04T10:20:31.198Z,99873.23
2019-04-04T10:22:59.410Z,99875.51
2019-04-04T10:25:27.606Z,99864.73
2019-04-04T10:27:55.820Z,99863.87
2019-04-04T10:30:24.024Z,99871.84
2019-04-04T10:32:52.324Z,99869.75
2019-04-04T10:35:20.525Z,99868.65
2019-04-04T10:37:48.748Z,99869.34
2019-04-04T10:40:16.950Z,99872.94
2019-04-04T10:42:45.151Z,99858.87
2019-04-04T10:45:13.507Z,99855.02
2019-04-04T10:47:41.730Z,99847.66
2019-04-04T10:50:09.952Z,99844.16
2019-04-04T10:52:39.459Z,99834.71
2019-04-04T10:55:07.682Z,99835.08
2019-04-04T10:57:35.886Z,99833.25
2019-04-04T11:00:08.409Z,99837.76
2019-04-04T11:02:36.611Z,99842.18
2019-04-04T11:05:05.452Z,99854.40
2019-04-04T11:07:34.033Z,99844.11
2019-04-04T11:10:02.242Z,99843.06
2019-04-04T11:12:30.462Z,99839.17
2019-04-04T11:14:58.658Z,99838.30
2019-04-04T11:17:26.879Z,99848.71
2019-04-04T11:19:55.080Z,99852.05
2019-04-04T11:22:23.282Z,99851.64
2019-04-04T11:24:51.498Z,99848.26
2019-04-04T11:27:19.706Z,99855.65
2019-04-04T11:29:47.927Z,99867.67
2019-04-04T11:32:16.133Z,99860.55
2019-04-04T11:34:52.968Z,99859.09
2019-04-04T11:37:14.286Z,99851.67
2019-04-04T11:39:53.930Z,99854.06
2019-04-04T11:42:12.416Z,99853.53
2019-04-04T11:44:40.616Z,99856.13
2019-04-04T11:47:08.834Z,99858.70
2019-04-04T11:49:37.036Z,99856.94
2019-04-04T11:52:05.250Z,99854.51
2019-04-04T11:54:35.100Z,99850.94
2019-04-04T11:57:03.321Z,99847.87
2019-04-04T11:59:31.516Z,99854.80
2019-04-04T12:02:00.094Z,99871.92
2019-04-04T12:04:28.310Z,99872.91
2019-04-04T12:06:56.506Z,99858.83
2019-04-04T12:09:24.719Z,99856.59
2019-04-04T12:11:53.387Z,99857.59
2019-04-04T12:14:21.588Z,99857.03
2019-04-04T12:16:49.784Z,99846.81
2019-04-04T12:19:17.993Z,99851.50
2019-04-04T12:21:46.183Z,99850.53
2019-04-04T12:24:14.389Z,99854.34
2019-04-04T12:26:42.592Z,99852.22
2019-04-04T12:29:10.809Z,99859.38
2019-04-04T12:31:39.007Z,99862.83
2019-04-04T12:34:07.221Z,99871.42
2019-04-04T12:36:35.422Z,99872.73
2019-04-04T12:39:03.762Z,99875.34
2019-04-04T12:41:31.985Z,99880.61
2019-04-04T12:44:00.195Z,99873.63
2019-04-04T12:46:28.417Z,99869.59
2019-04-04T12:48:57.084Z,99869.08
2019-04-04T12:51:25.302Z,99874.26
2019-04-04T12:53:53.518Z,99878.01
2019-04-04T12:56:21.729Z,99878.77
2019-04-04T12:58:50.185Z,99889.02
2019-04-04T13:01:21.110Z,99887.05
2019-04-04T13:03:48.327Z,99902.94
2019-04-04T13:06:16.539Z,99900.16
2019-04-04T13:08:44.740Z,99896.37
2019-04-04T13:11:12.968Z,99901.87
2019-04-04T13:13:41.171Z,99904.17
2019-04-04T13:16:09.373Z,99896.58
2019-04-04T13:18:37.589Z,99900.62
2019-04-04T13:21:05.798Z,99905.87
2019-04-04T13:23:34.018Z,99901.58
2019-04-04T13:26:02.219Z,99897.84
2019-04-04T13:28:30.440Z,99891.70
2019-04-04T13:30:58.648Z,99894.78
2019-04-04T13:33:26.883Z,99893.90
2019-04-04T13:35:55.087Z,99900.86
2019-04-04T13:38:24.761Z,99903.41
2019-04-04T13:40:52.985Z,99903.12
2019-04-04T13:43:22.594Z,99897.41
2019-04-04T13:45:51.131Z,99894.86
2019-04-04T13:48:19.326Z,99888.52
2019-04-04T13:50:47.585Z,99882.98
2019-04-04T13:53:15.790Z,99875.61
2019-04-04T13:55:43.990Z,99883.77
2019-04-04T13:58:12.443Z,99883.68
2019-04-04T14:00:40.588Z,99877.01
2019-04-04T14:03:09.285Z,99874.46
2019-04-04T14:05:37.481Z,99872.16
2019-04-04T14:08:05.717Z,99874.05
2019-04-04T14:10:33.894Z,99871.22
2019-04-04T14:13:02.097Z,99869.17
2019-04-04T14:15:30.334Z,99873.94
2019-04-04T14:17:58.525Z,99882.31
2019-04-04T14:20:26.745Z,99881.43
2019-04-04T14:22:54.950Z,99888.39
2019-04-04T14:25:23.175Z,99888.88
2019-04-04T14:27:51.380Z,99889.50
2019-04-04T14:30:19.598Z,99893.19
2019-04-04T14:32:47.799Z,99899.81
2019-04-04T14:35:16.016Z,99905.52
2019-04-04T14:37:44.222Z,99896.50
2019-04-04T14:40:12.453Z,99895.13
2019-04-04T14:42:40.650Z,99886.25
2019-04-04T14:45:09.138Z,99888.06
2019-04-04T14:47:37.337Z,99889.06
2019-04-04T14:50:07.094Z,99896.05
2019-04-04T14:52:35.298Z,99897.65
2019-04-04T14:55:04.252Z,99895.95
2019-04-04T14:57:32.460Z,99888.86
2019-04-04T15:00:00.681Z,99878.59
2019-04-04T15:02:28.883Z,99879.23
2019-04-04T15:04:57.085Z,99878.01
2019-04-04T15:07:25.306Z,99878.37
2019-04-04T15:09:53.502Z,99878.17
2019-04-04T15:12:22.730Z,99868.22
2019-04-04T15:14:50.929Z,99873.14
2019-04-04T15:17:19.139Z,99871.87
2019-04-04T15:19:47.345Z,99866.26
2019-04-04T15:22:15.629Z,99873.57
2019-04-04T15:24:43.829Z,99868.63
2019-04-04T15:27:12.046Z,99868.27
2019-04-04T15:29:40.249Z,99870.91
2019-04-04T15:32:08.542Z,99874.23
2019-04-04T15:34:36.748Z,99875.09
2019-04-04T15:37:04.954Z,99878.69
2019-04-04T15:39:33.167Z,99878.02
2019-04-04T15:42:01.385Z,99879.49
2019-04-04T15:44:29.600Z,99882.77
2019-04-04T15:46:57.808Z,99878.63
2019-04-04T15:49:26.039Z,99886.42
2019-04-04T15:51:54.245Z,99875.72
2019-04-04T15:54:22.447Z,99874.94
2019-04-04T15:56:50.661Z,99876.38
2019-04-04T15:59:18.860Z,99874.40
2019-04-04T16:01:47.074Z,99881.89
2019-04-04T16:04:15.287Z,99886.87
2019-04-04T16:06:43.503Z,99881.95
2019-04-04T16:09:11.698Z,99891.91
2019-04-04T16:11:49.450Z,99887.78
2019-04-04T16:14:09.842Z,99895.51
2019-04-04T16:16:38.057Z,99892.44
2019-04-04T16:19:06.256Z,99883.80
2019-04-04T16:21:34.733Z,99883.19
2019-04-04T16:24:02.945Z,99887.69
2019-04-04T16:26:31.166Z,99888.88
2019-04-04T16:28:59.365Z,99893.19
2019-04-04T16:31:27.580Z,99889.63
2019-04-04T16:33:55.781Z,99892.94
2019-04-04T16:36:24.004Z,99888.22
2019-04-04T16:38:52.217Z,99893.31
2019-04-04T16:41:20.412Z,99885.79
2019-04-04T16:43:49.613Z,99888.72
2019-04-04T16:46:17.907Z,99882.54
2019-04-04T16:48:46.126Z,99884.61
2019-04-04T16:51:14.327Z,99874.59
2019-04-04T16:53:42.544Z,99881.16
2019-04-04T16:56:10.751Z,99877.88
2019-04-04T16:58:38.956Z,99878.16
2019-04-04T17:01:07.173Z,99880.72
2019-04-04T17:03:35.381Z,99879.36
2019-04-04T17:06:03.600Z,99880.09
2019-04-04T17:08:31.807Z,99885.83
2019-04-04T17:11:00.033Z,99890.35
2019-04-04T17:13:28.234Z,99895.59
2019-04-04T17:15:56.440Z,99895.52
2019-04-04T17:18:24.657Z,99897.40
2019-04-04T17:20:52.867Z,99910.58
2019-04-04T17:23:21.086Z,99915.79
2019-04-04T17:25:49.294Z,99916.22
2019-04-04T17:28:17.648Z,99913.47
2019-04-04T17:30:46.195Z,99920.95
2019-04-04T17:33:14.944Z,99910.72
2019-04-04T17:35:43.186Z,99915.95
2019-04-04T17:38:11.404Z,99920.81
2019-04-04T17:40:40.118Z,99930.47
2019-04-04T17:43:08.326Z,99930.75
2019-04-04T17:45:36.936Z,99932.37
2019-04-04T17:48:05.153Z,99934.81
2019-04-04T17:50:33.390Z,99931.84
2019-04-04T17:53:01.663Z,99937.45
2019-04-04T17:55:29.905Z,99947.84
2019-04-04T17:57:58.092Z,99949.79
2019-04-04T18:00:27.517Z,99950.41
2019-04-04T18:02:55.716Z,99960.43
2019-04-04T18:05:23.937Z,99963.37
2019-04-04T18:07:52.146Z,99978.67
2019-04-04T18:10:21.716Z,99989.69
2019-04-04T18:12:49.927Z,100002.75
2019-04-04T18:15:18.137Z,100011.52
2019-04-04T18:17:46.326Z,100012.74
2019-04-04T18:20:15.805Z,100014.84
2019-04-04T18:22:44.005Z,100020.71
2019-04-04T18:25:12.191Z,100022.28
2019-04-04T18:27:42.638Z,100033.59
2019-04-04T18:30:13.078Z,100035.50
2019-04-04T18:32:41.288Z,100035.55
2019-04-04T18:35:09.553Z,100042.55
2019-04-04T18:37:38.119Z,100044.97
2019-04-04T18:40:07.262Z,100044.14
2019-04-04T18:42:35.482Z,100038.69
2019-04-04T18:45:05.565Z,100047.26
2019-04-04T18:47:33.777Z,100054.77
2019-04-04T18:50:02.379Z,100053.41
2019-04-04T18:52:30.578Z,100055.62
2019-04-04T18:54:58.790Z,100065.03
2019-04-04T18:57:27.014Z,100063.98
2019-04-04T18:59:55.213Z,100061.61
2019-04-04T19:02:23.410Z,100067.77
2019-04-04T19:04:51.624Z,100060.59
2019-04-04T19:07:19.825Z,100063.15
2019-04-04T19:09:48.042Z,100067.91
2019-04-04T19:12:16.242Z,100068.75
2019-04-04T19:14:44.452Z,100069.41
2019-04-04T19:17:12.673Z,100073.19
2019-04-04T19:19:42.011Z,100081.56
2019-04-04T19:22:10.235Z,100080.87
2019-04-04T19:24:38.429Z,100085.80
2019-04-04T19:27:06.645Z,100092.59
2019-04-04T19:29:34.849Z,100090.92
2019-04-04T19:32:03.644Z,100094.81
2019-04-04T19:34:31.849Z,100095.67
2019-04-04T19:37:00.052Z,100098.23
2019-04-04T19:39:28.266Z,100100.10
2019-04-04T19:41:56.464Z,100098.05
2019-04-04T19:44:24.686Z,100103.52
2019-04-04T19:46:52.888Z,100103.86
2019-04-04T19:49:21.178Z,100098.36
2019-04-04T19:51:49.389Z,100094.22
2019-04-04T19:54:19.395Z,100101.69
2019-04-04T19:56:47.634Z,100099.92
2019-04-04T19:59:15.834Z,100103.80
2019-04-04T20:01:44.052Z,100107.42
2019-04-04T20:04:13.885Z,100108.13
2019-04-04T20:06:42.097Z,100102.32
2019-04-04T20:09:10.306Z,100104.72
2019-04-04T20:11:38.664Z,100108.67
2019-04-04T20:14:07.147Z,100108.17
2019-04-04T20:16:35.638Z,100108.30
2019-04-04T20:19:03.982Z,100110.34
2019-04-04T20:21:32.191Z,100107.78
2019-04-04T20:24:00.398Z,100105.33
2019-04-04T20:26:29.556Z,100105.27
2019-04-04T20:28:58.041Z,100094.63
2019-04-04T20:31:26.532Z,100105.34
2019-04-04T20:34:01.534Z,100101.09
2019-04-04T20:36:25.014Z,100100.06
2019-04-04T20:38:53.436Z,100095.22
2019-04-04T20:41:21.986Z,100097.89
2019-04-04T20:43:50.451Z,100091.73
2019-04-04T20:46:18.937Z,100088.59
2019-04-04T20:48:47.143Z,100095.50
2019-04-04T20:51:15.421Z,100095.48
2019-04-04T20:53:43.808Z,100099.06
2019-04-04T20:56:12.357Z,100102.53
2019-04-04T20:58:42.188Z,100096.01
2019-04-04T21:01:10.484Z,100098.69
2019-04-04T21:03:38.811Z,100103.05
2019-04-04T21:06:07.055Z,100099.25
2019-04-04T21:08:35.281Z,100109.22
2019-04-04T21:11:03.787Z,100110.14
2019-04-04T21:13:32.130Z,100114.02
2019-04-04T21:16:00.445Z,100106.53
2019-04-04T21:18:28.765Z,100109.92
2019-04-04T21:20:57.160Z,100114.77
2019-04-04T21:23:25.640Z,100109.31
2019-04-04T21:25:54.132Z,100106.47
2019-04-04T21:28:22.597Z,100114.23
2019-04-04T21:30:50.839Z,100117.21
2019-04-04T21:33:19.048Z,100118.70
2019-04-04T21:35:47.261Z,100114.70
2019-04-04T21:38:15.472Z,100115.02
2019-04-04T21:40:44.010Z,100112.17
2019-04-04T21:43:12.208Z,100113.09
2019-04-04T21:45:40.482Z,100109.73
2019-04-04T21:48:08.775Z,100113.51
2019-04-04T21:50:38.384Z,100115.37
2019-04-04T21:53:07.631Z,100111.52
2019-04-04T21:55:35.839Z,100109.92
2019-04-04T21:58:04.051Z,100109.29
2019-04-04T22:00:39.714Z,100114.04
2019-04-04T22:03:07.924Z,100114.42
2019-04-04T22:05:36.139Z,100108.17
2019-04-04T22:08:04.464Z,100107.92
2019-04-04T22:10:32.929Z,100113.63
2019-04-04T22:13:01.144Z,100110.84
2019-04-04T22:15:29.348Z,100106.35
2019-04-04T22:17:58.124Z,100104.20
2019-04-04T22:20:26.321Z,100104.06
2019-04-04T22:22:54.839Z,100102.98
2019-04-04T22:25:23.299Z,100099.13
2019-04-04T22:27:51.799Z,100106.53
2019-04-04T22:30:20.278Z,100100.11
2019-04-04T22:32:48.970Z,100097.14
2019-04-04T22:35:17.325Z,100096.16
2019-04-04T22:37:45.710Z,100096.88
2019-04-04T22:40:15.668Z,100090.36
2019-04-04T22:42:44.214Z,100095.59
2019-04-04T22:45:12.708Z,100102.20
2019-04-04T22:47:41.174Z,100096.47
2019-04-04T22:50:10.361Z,100096.31
2019-04-04T22:52:38.562Z,100095.17
2019-04-04T22:55:07.292Z,100101.03
2019-04-04T22:57:36.273Z,100107.73
2019-04-04T23:00:06.906Z,100098.73
2019-04-04T23:02:35.202Z,100097.38
2019-04-04T23:05:04.536Z,100104.19
2019-04-04T23:07:32.760Z,100098.27
2019-04-04T23:10:00.949Z,100101.89
2019-04-04T23:12:29.160Z,100098.69
2019-04-04T23:14:57.532Z,100101.98
2019-04-04T23:17:26.043Z,100108.92
2019-04-04T23:19:54.501Z,100106.70
2019-04-04T23:22:22.983Z,100106.49
2019-04-04T23:24:51.477Z,100109.42
2019-04-04T23:27:19.687Z,100118.67
2019-04-04T23:29:47.925Z,100119.88
2019-04-04T23:32:16.399Z,100117.56
2019-04-04T23:34:44.885Z,100121.55
2019-04-04T23:37:13.366Z,100131.66
2019-04-04T23:39:41.865Z,100137.51
2019-04-04T23:42:10.331Z,100153.38
2019-04-04T23:44:38.528Z,100164.10
2019-04-04T23:47:06.813Z,100167.88
2019-04-04T23:49:35.015Z,100157.41
2019-04-04T23:52:03.508Z,100171.41
2019-04-04T23:54:31.705Z,100169.70
2019-04-04T23:56:59.917Z,100163.87
2019-04-04T23:59:28.122Z,100173.08
